sensor_id;sensor_type;location;lat;lon;timestamp;temperature;humidity
58568;DHT22;44354;46.192;-1.076;2023-04-03T00:00:48;7.40;99.90
58568;DHT22;44354;46.192;-1.076;2023-04-03T00:03:15;7.30;99.90
58568;DHT22;44354;46.192;-1.076;2023-04-03T00:05:40;7.20;99.90
58568;DHT22;44354;46.192;-1.076;2023-04-03T00:08:07;7.20;99.90
58568;DHT22;44354;46.192;-1.076;2023-04-03T00:10:35;7.10;99.90
58568;DHT22;44354;46.192;-1.076;2023-04-03T00:13:01;7.10;99.90
58568;DHT22;44354;46.192;-1.076;2023-04-03T00:15:26;7.00;99.90
58568;DHT22;44354;46.192;-1.076;2023-04-03T00:17:52;6.90;99.90
58568;DHT22;44354;46.192;-1.076;2023-04-03T00:20:17;6.90;99.90
58568;DHT22;44354;46.192;-1.076;2023-04-03T00:22:43;6.90;99.90
58568;DHT22;44354;46.192;-1.076;2023-04-03T00:25:08;6.70;99.90
58568;DHT22;44354;46.192;-1.076;2023-04-03T00:27:35;6.70;99.90
58568;DHT22;44354;46.192;-1.076;2023-04-03T00:30:01;6.60;99.90
58568;DHT22;44354;46.192;-1.076;2023-04-03T00:32:27;6.60;99.90
58568;DHT22;44354;46.192;-1.076;2023-04-03T00:34:52;6.70;99.90
58568;DHT22;44354;46.192;-1.076;2023-04-03T00:37:18;6.50;99.90
58568;DHT22;44354;46.192;-1.076;2023-04-03T00:39:43;6.50;99.90
58568;DHT22;44354;46.192;-1.076;2023-04-03T00:42:09;6.50;99.90
58568;DHT22;44354;46.192;-1.076;2023-04-03T00:47:00;6.50;99.90
58568;DHT22;44354;46.192;-1.076;2023-04-03T00:49:26;6.50;99.90
58568;DHT22;44354;46.192;-1.076;2023-04-03T00:51:51;6.50;99.90
58568;DHT22;44354;46.192;-1.076;2023-04-03T00:54:17;6.40;99.90
58568;DHT22;44354;46.192;-1.076;2023-04-03T00:56:43;6.30;99.90
58568;DHT22;44354;46.192;-1.076;2023-04-03T00:59:11;6.30;99.90
58568;DHT22;44354;46.192;-1.076;2023-04-03T01:01:37;6.30;99.90
58568;DHT22;44354;46.192;-1.076;2023-04-03T01:04:03;6.20;99.90
58568;DHT22;44354;46.192;-1.076;2023-04-03T01:06:30;6.10;99.90
58568;DHT22;44354;46.192;-1.076;2023-04-03T01:08:57;6.10;99.90
58568;DHT22;44354;46.192;-1.076;2023-04-03T01:11:24;6.00;99.90
58568;DHT22;44354;46.192;-1.076;2023-04-03T01:13:50;6.00;99.90
58568;DHT22;44354;46.192;-1.076;2023-04-03T01:16:15;6.00;99.90
58568;DHT22;44354;46.192;-1.076;2023-04-03T01:18:41;6.00;99.90
58568;DHT22;44354;46.192;-1.076;2023-04-03T01:21:14;6.00;99.90
58568;DHT22;44354;46.192;-1.076;2023-04-03T01:23:46;6.00;99.90
58568;DHT22;44354;46.192;-1.076;2023-04-03T01:26:14;5.90;99.90
58568;DHT22;44354;46.192;-1.076;2023-04-03T01:28:40;5.90;99.90
58568;DHT22;44354;46.192;-1.076;2023-04-03T01:31:20;5.90;99.90
58568;DHT22;44354;46.192;-1.076;2023-04-03T01:33:47;5.80;99.90
58568;DHT22;44354;46.192;-1.076;2023-04-03T01:36:17;5.70;99.90
58568;DHT22;44354;46.192;-1.076;2023-04-03T01:38:43;5.70;99.90
58568;DHT22;44354;46.192;-1.076;2023-04-03T01:41:09;5.70;99.90
58568;DHT22;44354;46.192;-1.076;2023-04-03T01:43:34;5.70;99.90
58568;DHT22;44354;46.192;-1.076;2023-04-03T01:46:00;5.70;99.90
58568;DHT22;44354;46.192;-1.076;2023-04-03T01:48:25;5.70;99.90
58568;DHT22;44354;46.192;-1.076;2023-04-03T01:50:51;5.70;99.90
58568;DHT22;44354;46.192;-1.076;2023-04-03T01:53:16;5.60;99.90
58568;DHT22;44354;46.192;-1.076;2023-04-03T01:55:42;5.50;99.90
58568;DHT22;44354;46.192;-1.076;2023-04-03T01:58:07;5.40;99.90
58568;DHT22;44354;46.192;-1.076;2023-04-03T02:00:33;5.40;99.90
58568;DHT22;44354;46.192;-1.076;2023-04-03T02:02:58;5.40;99.90
58568;DHT22;44354;46.192;-1.076;2023-04-03T02:05:24;5.40;99.90
58568;DHT22;44354;46.192;-1.076;2023-04-03T02:07:50;5.30;99.90
58568;DHT22;44354;46.192;-1.076;2023-04-03T02:10:15;5.40;99.90
58568;DHT22;44354;46.192;-1.076;2023-04-03T02:12:41;5.30;99.90
58568;DHT22;44354;46.192;-1.076;2023-04-03T02:15:07;5.30;99.90
58568;DHT22;44354;46.192;-1.076;2023-04-03T02:17:32;5.30;99.90
58568;DHT22;44354;46.192;-1.076;2023-04-03T02:19:58;5.20;99.90
58568;DHT22;44354;46.192;-1.076;2023-04-03T02:22:23;5.30;99.90
58568;DHT22;44354;46.192;-1.076;2023-04-03T02:24:49;5.20;99.90
58568;DHT22;44354;46.192;-1.076;2023-04-03T02:27:14;5.20;99.90
58568;DHT22;44354;46.192;-1.076;2023-04-03T02:29:41;5.20;99.90
58568;DHT22;44354;46.192;-1.076;2023-04-03T02:32:06;5.20;99.90
58568;DHT22;44354;46.192;-1.076;2023-04-03T02:34:32;5.20;99.90
58568;DHT22;44354;46.192;-1.076;2023-04-03T02:36:57;5.20;99.90
58568;DHT22;44354;46.192;-1.076;2023-04-03T02:39:23;5.30;99.90
58568;DHT22;44354;46.192;-1.076;2023-04-03T02:41:48;5.20;99.90
58568;DHT22;44354;46.192;-1.076;2023-04-03T02:44:14;5.20;99.90
58568;DHT22;44354;46.192;-1.076;2023-04-03T02:46:39;5.20;99.90
58568;DHT22;44354;46.192;-1.076;2023-04-03T02:49:05;5.00;99.90
58568;DHT22;44354;46.192;-1.076;2023-04-03T02:51:31;5.00;99.90
58568;DHT22;44354;46.192;-1.076;2023-04-03T02:53:57;4.90;99.90
58568;DHT22;44354;46.192;-1.076;2023-04-03T02:56:22;4.90;99.90
58568;DHT22;44354;46.192;-1.076;2023-04-03T02:58:48;4.80;99.90
58568;DHT22;44354;46.192;-1.076;2023-04-03T03:01:14;4.90;99.90
58568;DHT22;44354;46.192;-1.076;2023-04-03T03:03:40;4.90;99.90
58568;DHT22;44354;46.192;-1.076;2023-04-03T03:08:31;4.90;99.90
58568;DHT22;44354;46.192;-1.076;2023-04-03T03:10:56;4.90;99.90
58568;DHT22;44354;46.192;-1.076;2023-04-03T03:13:22;4.90;99.90
58568;DHT22;44354;46.192;-1.076;2023-04-03T03:15:48;4.80;99.90
58568;DHT22;44354;46.192;-1.076;2023-04-03T03:18:13;4.70;99.90
58568;DHT22;44354;46.192;-1.076;2023-04-03T03:20:39;4.70;99.90
58568;DHT22;44354;46.192;-1.076;2023-04-03T03:23:04;4.70;99.90
58568;DHT22;44354;46.192;-1.076;2023-04-03T03:25:30;4.70;99.90
58568;DHT22;44354;46.192;-1.076;2023-04-03T03:27:55;4.60;99.90
58568;DHT22;44354;46.192;-1.076;2023-04-03T03:30:21;4.60;99.90
58568;DHT22;44354;46.192;-1.076;2023-04-03T03:32:47;4.60;99.90
58568;DHT22;44354;46.192;-1.076;2023-04-03T03:35:12;4.50;99.90
58568;DHT22;44354;46.192;-1.076;2023-04-03T03:37:38;4.50;99.90
58568;DHT22;44354;46.192;-1.076;2023-04-03T03:40:03;4.50;99.90
58568;DHT22;44354;46.192;-1.076;2023-04-03T03:42:29;4.50;99.90
58568;DHT22;44354;46.192;-1.076;2023-04-03T03:44:54;4.40;99.90
58568;DHT22;44354;46.192;-1.076;2023-04-03T03:47:20;4.30;99.90
58568;DHT22;44354;46.192;-1.076;2023-04-03T03:49:45;4.30;99.90
58568;DHT22;44354;46.192;-1.076;2023-04-03T03:52:11;4.30;99.90
58568;DHT22;44354;46.192;-1.076;2023-04-03T03:54:37;4.30;99.90
58568;DHT22;44354;46.192;-1.076;2023-04-03T03:57:03;4.20;99.90
58568;DHT22;44354;46.192;-1.076;2023-04-03T03:59:28;4.10;99.90
58568;DHT22;44354;46.192;-1.076;2023-04-03T04:01:54;4.10;99.90
58568;DHT22;44354;46.192;-1.076;2023-04-03T04:04:20;4.10;99.90
58568;DHT22;44354;46.192;-1.076;2023-04-03T04:06:45;4.10;99.90
58568;DHT22;44354;46.192;-1.076;2023-04-03T04:09:11;4.10;99.90
58568;DHT22;44354;46.192;-1.076;2023-04-03T04:11:37;4.10;99.90
58568;DHT22;44354;46.192;-1.076;2023-04-03T04:14:05;4.00;99.90
58568;DHT22;44354;46.192;-1.076;2023-04-03T04:16:30;4.00;99.90
58568;DHT22;44354;46.192;-1.076;2023-04-03T04:18:56;4.00;99.90
58568;DHT22;44354;46.192;-1.076;2023-04-03T04:21:21;4.00;99.90
58568;DHT22;44354;46.192;-1.076;2023-04-03T04:23:47;3.90;99.90
58568;DHT22;44354;46.192;-1.076;2023-04-03T04:26:12;3.80;99.90
58568;DHT22;44354;46.192;-1.076;2023-04-03T04:28:38;3.70;99.90
58568;DHT22;44354;46.192;-1.076;2023-04-03T04:31:03;3.70;99.90
58568;DHT22;44354;46.192;-1.076;2023-04-03T04:33:29;3.60;99.90
58568;DHT22;44354;46.192;-1.076;2023-04-03T04:35:55;3.60;99.90
58568;DHT22;44354;46.192;-1.076;2023-04-03T04:38:21;3.50;99.90
58568;DHT22;44354;46.192;-1.076;2023-04-03T04:40:47;3.40;99.90
58568;DHT22;44354;46.192;-1.076;2023-04-03T04:43:12;3.40;99.90
58568;DHT22;44354;46.192;-1.076;2023-04-03T04:45:40;3.40;99.90
58568;DHT22;44354;46.192;-1.076;2023-04-03T04:48:05;3.40;99.90
58568;DHT22;44354;46.192;-1.076;2023-04-03T04:50:31;3.40;99.90
58568;DHT22;44354;46.192;-1.076;2023-04-03T04:52:56;3.40;99.90
58568;DHT22;44354;46.192;-1.076;2023-04-03T04:55:22;3.40;99.90
58568;DHT22;44354;46.192;-1.076;2023-04-03T04:57:47;3.40;99.90
58568;DHT22;44354;46.192;-1.076;2023-04-03T05:00:13;3.30;99.90
58568;DHT22;44354;46.192;-1.076;2023-04-03T05:02:39;3.40;99.90
58568;DHT22;44354;46.192;-1.076;2023-04-03T05:05:04;3.30;99.90
58568;DHT22;44354;46.192;-1.076;2023-04-03T05:07:30;3.30;99.90
58568;DHT22;44354;46.192;-1.076;2023-04-03T05:09:56;3.40;99.90
58568;DHT22;44354;46.192;-1.076;2023-04-03T05:12:21;3.30;99.90
58568;DHT22;44354;46.192;-1.076;2023-04-03T05:14:47;3.20;99.90
58568;DHT22;44354;46.192;-1.076;2023-04-03T05:17:12;3.20;99.90
58568;DHT22;44354;46.192;-1.076;2023-04-03T05:19:38;3.20;99.90
58568;DHT22;44354;46.192;-1.076;2023-04-03T05:22:03;3.20;99.90
58568;DHT22;44354;46.192;-1.076;2023-04-03T05:24:29;3.20;99.90
58568;DHT22;44354;46.192;-1.076;2023-04-03T05:26:55;3.10;99.90
58568;DHT22;44354;46.192;-1.076;2023-04-03T05:29:20;3.10;99.90
58568;DHT22;44354;46.192;-1.076;2023-04-03T05:31:46;3.00;99.90
58568;DHT22;44354;46.192;-1.076;2023-04-03T05:34:13;3.00;99.90
58568;DHT22;44354;46.192;-1.076;2023-04-03T05:36:39;3.00;99.90
58568;DHT22;44354;46.192;-1.076;2023-04-03T05:39:04;3.00;99.90
58568;DHT22;44354;46.192;-1.076;2023-04-03T05:41:30;3.10;99.90
58568;DHT22;44354;46.192;-1.076;2023-04-03T05:43:55;3.10;99.90
58568;DHT22;44354;46.192;-1.076;2023-04-03T05:46:21;3.10;99.90
58568;DHT22;44354;46.192;-1.076;2023-04-03T05:48:47;3.00;99.90
58568;DHT22;44354;46.192;-1.076;2023-04-03T05:51:14;3.00;99.90
58568;DHT22;44354;46.192;-1.076;2023-04-03T05:53:40;2.90;99.90
58568;DHT22;44354;46.192;-1.076;2023-04-03T05:56:06;2.90;99.90
58568;DHT22;44354;46.192;-1.076;2023-04-03T05:58:32;2.90;99.90
58568;DHT22;44354;46.192;-1.076;2023-04-03T06:00:57;2.90;99.90
58568;DHT22;44354;46.192;-1.076;2023-04-03T06:03:23;2.90;99.90
58568;DHT22;44354;46.192;-1.076;2023-04-03T06:05:48;2.90;99.90
58568;DHT22;44354;46.192;-1.076;2023-04-03T06:08:14;2.90;99.90
58568;DHT22;44354;46.192;-1.076;2023-04-03T06:10:40;3.00;99.90
58568;DHT22;44354;46.192;-1.076;2023-04-03T06:13:05;3.00;99.90
58568;DHT22;44354;46.192;-1.076;2023-04-03T06:15:31;3.00;99.90
58568;DHT22;44354;46.192;-1.076;2023-04-03T06:17:56;3.00;99.90
58568;DHT22;44354;46.192;-1.076;2023-04-03T06:20:22;3.00;99.90
58568;DHT22;44354;46.192;-1.076;2023-04-03T06:22:48;3.20;99.90
58568;DHT22;44354;46.192;-1.076;2023-04-03T06:25:13;3.30;99.90
58568;DHT22;44354;46.192;-1.076;2023-04-03T06:27:39;3.30;99.90
58568;DHT22;44354;46.192;-1.076;2023-04-03T06:30:06;3.30;99.90
58568;DHT22;44354;46.192;-1.076;2023-04-03T06:32:32;3.40;99.90
58568;DHT22;44354;46.192;-1.076;2023-04-03T06:34:57;3.30;99.90
58568;DHT22;44354;46.192;-1.076;2023-04-03T06:37:23;3.30;99.90
58568;DHT22;44354;46.192;-1.076;2023-04-03T06:39:51;3.30;99.90
58568;DHT22;44354;46.192;-1.076;2023-04-03T06:42:17;3.40;99.90
58568;DHT22;44354;46.192;-1.076;2023-04-03T06:44:42;3.30;99.90
58568;DHT22;44354;46.192;-1.076;2023-04-03T06:47:09;3.40;99.90
58568;DHT22;44354;46.192;-1.076;2023-04-03T06:49:36;3.30;99.90
58568;DHT22;44354;46.192;-1.076;2023-04-03T06:52:02;3.30;99.90
58568;DHT22;44354;46.192;-1.076;2023-04-03T06:54:28;3.30;99.90
58568;DHT22;44354;46.192;-1.076;2023-04-03T06:56:53;3.40;99.90
58568;DHT22;44354;46.192;-1.076;2023-04-03T06:59:19;3.50;99.90
58568;DHT22;44354;46.192;-1.076;2023-04-03T07:01:44;3.60;99.90
58568;DHT22;44354;46.192;-1.076;2023-04-03T07:04:10;3.60;99.90
58568;DHT22;44354;46.192;-1.076;2023-04-03T07:06:36;3.70;99.90
58568;DHT22;44354;46.192;-1.076;2023-04-03T07:09:01;3.80;99.90
58568;DHT22;44354;46.192;-1.076;2023-04-03T07:11:28;3.80;99.90
58568;DHT22;44354;46.192;-1.076;2023-04-03T07:13:53;3.80;99.90
58568;DHT22;44354;46.192;-1.076;2023-04-03T07:16:19;3.80;99.90
58568;DHT22;44354;46.192;-1.076;2023-04-03T07:18:45;3.90;99.90
58568;DHT22;44354;46.192;-1.076;2023-04-03T07:21:14;4.10;99.90
58568;DHT22;44354;46.192;-1.076;2023-04-03T07:23:39;4.30;99.90
58568;DHT22;44354;46.192;-1.076;2023-04-03T07:26:05;4.50;99.90
58568;DHT22;44354;46.192;-1.076;2023-04-03T07:28:34;4.70;99.90
58568;DHT22;44354;46.192;-1.076;2023-04-03T07:31:04;4.80;99.90
58568;DHT22;44354;46.192;-1.076;2023-04-03T07:33:31;4.90;99.90
58568;DHT22;44354;46.192;-1.076;2023-04-03T07:35:57;4.80;99.90
58568;DHT22;44354;46.192;-1.076;2023-04-03T07:38:23;5.00;99.90
58568;DHT22;44354;46.192;-1.076;2023-04-03T07:40:52;5.20;99.90
58568;DHT22;44354;46.192;-1.076;2023-04-03T07:43:18;5.60;99.90
58568;DHT22;44354;46.192;-1.076;2023-04-03T07:45:44;5.70;99.90
58568;DHT22;44354;46.192;-1.076;2023-04-03T07:48:11;5.90;99.90
58568;DHT22;44354;46.192;-1.076;2023-04-03T07:50:37;6.10;99.90
58568;DHT22;44354;46.192;-1.076;2023-04-03T07:53:05;6.30;99.90
58568;DHT22;44354;46.192;-1.076;2023-04-03T07:55:31;6.40;99.90
58568;DHT22;44354;46.192;-1.076;2023-04-03T07:57:57;6.70;99.90
58568;DHT22;44354;46.192;-1.076;2023-04-03T08:00:22;6.70;99.90
58568;DHT22;44354;46.192;-1.076;2023-04-03T08:02:50;6.80;99.90
58568;DHT22;44354;46.192;-1.076;2023-04-03T08:05:17;7.00;99.90
58568;DHT22;44354;46.192;-1.076;2023-04-03T08:07:43;7.10;99.90
58568;DHT22;44354;46.192;-1.076;2023-04-03T08:10:09;7.10;99.90
58568;DHT22;44354;46.192;-1.076;2023-04-03T08:12:34;7.20;99.90
58568;DHT22;44354;46.192;-1.076;2023-04-03T08:15:02;7.40;99.90
58568;DHT22;44354;46.192;-1.076;2023-04-03T08:17:28;7.60;99.90
58568;DHT22;44354;46.192;-1.076;2023-04-03T08:19:53;7.60;99.90
58568;DHT22;44354;46.192;-1.076;2023-04-03T08:22:19;7.80;99.90
58568;DHT22;44354;46.192;-1.076;2023-04-03T08:24:45;8.00;99.90
58568;DHT22;44354;46.192;-1.076;2023-04-03T08:27:11;8.20;99.90
58568;DHT22;44354;46.192;-1.076;2023-04-03T08:29:36;8.30;99.90
58568;DHT22;44354;46.192;-1.076;2023-04-03T08:32:03;8.40;99.90
58568;DHT22;44354;46.192;-1.076;2023-04-03T08:34:29;8.60;99.90
58568;DHT22;44354;46.192;-1.076;2023-04-03T08:37:00;8.80;99.90
58568;DHT22;44354;46.192;-1.076;2023-04-03T08:39:25;8.80;99.90
58568;DHT22;44354;46.192;-1.076;2023-04-03T08:41:51;8.90;99.90
58568;DHT22;44354;46.192;-1.076;2023-04-03T08:47:02;8.90;99.90
58568;DHT22;44354;46.192;-1.076;2023-04-03T08:49:31;8.80;99.90
58568;DHT22;44354;46.192;-1.076;2023-04-03T08:51:58;9.00;99.90
58568;DHT22;44354;46.192;-1.076;2023-04-03T08:54:27;8.80;99.90
58568;DHT22;44354;46.192;-1.076;2023-04-03T08:56:53;8.70;99.90
58568;DHT22;44354;46.192;-1.076;2023-04-03T08:59:24;8.60;99.90
58568;DHT22;44354;46.192;-1.076;2023-04-03T09:01:51;8.60;99.90
58568;DHT22;44354;46.192;-1.076;2023-04-03T09:04:17;8.60;99.90
58568;DHT22;44354;46.192;-1.076;2023-04-03T09:06:48;8.50;99.90
58568;DHT22;44354;46.192;-1.076;2023-04-03T09:09:21;8.40;99.90
58568;DHT22;44354;46.192;-1.076;2023-04-03T09:14:56;8.30;99.90
58568;DHT22;44354;46.192;-1.076;2023-04-03T09:19:54;8.50;99.90
58568;DHT22;44354;46.192;-1.076;2023-04-03T09:22:27;8.40;99.90
58568;DHT22;44354;46.192;-1.076;2023-04-03T09:25:04;8.50;99.90
58568;DHT22;44354;46.192;-1.076;2023-04-03T09:27:31;8.50;99.90
58568;DHT22;44354;46.192;-1.076;2023-04-03T09:29:56;8.60;99.90
58568;DHT22;44354;46.192;-1.076;2023-04-03T09:32:33;8.50;99.90
58568;DHT22;44354;46.192;-1.076;2023-04-03T09:35:01;8.60;99.90
58568;DHT22;44354;46.192;-1.076;2023-04-03T09:37:40;9.00;99.90
58568;DHT22;44354;46.192;-1.076;2023-04-03T09:41:02;9.20;99.90
58568;DHT22;44354;46.192;-1.076;2023-04-03T09:42:59;9.60;99.90
58568;DHT22;44354;46.192;-1.076;2023-04-03T09:45:29;9.70;99.90
58568;DHT22;44354;46.192;-1.076;2023-04-03T09:48:28;9.70;99.90
58568;DHT22;44354;46.192;-1.076;2023-04-03T09:53:51;9.60;99.90
58568;DHT22;44354;46.192;-1.076;2023-04-03T09:56:18;9.60;99.90
58568;DHT22;44354;46.192;-1.076;2023-04-03T09:58:49;9.60;99.90
58568;DHT22;44354;46.192;-1.076;2023-04-03T10:01:23;9.60;99.90
58568;DHT22;44354;46.192;-1.076;2023-04-03T10:04:02;9.50;99.90
58568;DHT22;44354;46.192;-1.076;2023-04-03T10:06:29;9.50;99.90
58568;DHT22;44354;46.192;-1.076;2023-04-03T10:09:00;9.70;99.90
58568;DHT22;44354;46.192;-1.076;2023-04-03T10:11:26;9.70;99.90
58568;DHT22;44354;46.192;-1.076;2023-04-03T10:13:55;9.70;99.90
58568;DHT22;44354;46.192;-1.076;2023-04-03T10:16:29;9.70;99.90
58568;DHT22;44354;46.192;-1.076;2023-04-03T10:19:01;9.50;99.90
58568;DHT22;44354;46.192;-1.076;2023-04-03T10:31:56;9.20;99.90
58568;DHT22;44354;46.192;-1.076;2023-04-03T10:34:28;8.90;99.90
58568;DHT22;44354;46.192;-1.076;2023-04-03T10:47:22;8.80;99.90
58568;DHT22;44354;46.192;-1.076;2023-04-03T10:57:21;8.70;99.90
58568;DHT22;44354;46.192;-1.076;2023-04-03T10:59:50;8.70;99.90
58568;DHT22;44354;46.192;-1.076;2023-04-03T11:02:27;8.80;99.90
58568;DHT22;44354;46.192;-1.076;2023-04-03T11:04:55;8.80;99.90
58568;DHT22;44354;46.192;-1.076;2023-04-03T11:07:23;8.70;99.90
58568;DHT22;44354;46.192;-1.076;2023-04-03T11:09:55;8.80;99.90
58568;DHT22;44354;46.192;-1.076;2023-04-03T11:12:26;8.70;99.90
58568;DHT22;44354;46.192;-1.076;2023-04-03T11:14:54;8.60;99.90
58568;DHT22;44354;46.192;-1.076;2023-04-03T11:17:24;8.60;99.90
58568;DHT22;44354;46.192;-1.076;2023-04-03T11:22:33;8.60;99.90
58568;DHT22;44354;46.192;-1.076;2023-04-03T11:25:08;8.60;99.90
58568;DHT22;44354;46.192;-1.076;2023-04-03T11:27:44;8.80;99.90
58568;DHT22;44354;46.192;-1.076;2023-04-03T11:30:16;8.60;99.90
58568;DHT22;44354;46.192;-1.076;2023-04-03T11:33:05;8.70;99.90
58568;DHT22;44354;46.192;-1.076;2023-04-03T11:35:35;8.80;99.90
58568;DHT22;44354;46.192;-1.076;2023-04-03T11:38:02;8.60;99.90
58568;DHT22;44354;46.192;-1.076;2023-04-03T11:40:31;8.50;99.90
58568;DHT22;44354;46.192;-1.076;2023-04-03T11:45:32;8.50;99.90
58568;DHT22;44354;46.192;-1.076;2023-04-03T11:47:59;8.60;99.90
58568;DHT22;44354;46.192;-1.076;2023-04-03T11:53:01;8.70;99.90
58568;DHT22;44354;46.192;-1.076;2023-04-03T12:16:21;9.10;99.90
58568;DHT22;44354;46.192;-1.076;2023-04-03T12:18:55;9.10;99.90
58568;DHT22;44354;46.192;-1.076;2023-04-03T12:26:32;9.20;99.90
58568;DHT22;44354;46.192;-1.076;2023-04-03T12:29:01;9.10;99.90
58568;DHT22;44354;46.192;-1.076;2023-04-03T12:31:32;9.20;99.90
58568;DHT22;44354;46.192;-1.076;2023-04-03T12:39:34;9.30;99.90
58568;DHT22;44354;46.192;-1.076;2023-04-03T12:42:25;9.30;99.90
58568;DHT22;44354;46.192;-1.076;2023-04-03T12:44:50;9.40;99.90
58568;DHT22;44354;46.192;-1.076;2023-04-03T12:47:22;9.50;99.90
58568;DHT22;44354;46.192;-1.076;2023-04-03T12:49:48;9.50;99.90
58568;DHT22;44354;46.192;-1.076;2023-04-03T12:52:29;9.60;99.90
58568;DHT22;44354;46.192;-1.076;2023-04-03T12:54:55;9.70;99.90
58568;DHT22;44354;46.192;-1.076;2023-04-03T12:57:25;9.70;99.90
58568;DHT22;44354;46.192;-1.076;2023-04-03T12:59:51;9.70;99.90
58568;DHT22;44354;46.192;-1.076;2023-04-03T13:04:42;9.70;99.90
58568;DHT22;44354;46.192;-1.076;2023-04-03T13:07:18;9.80;99.90
58568;DHT22;44354;46.192;-1.076;2023-04-03T13:09:44;9.80;99.90
58568;DHT22;44354;46.192;-1.076;2023-04-03T13:12:20;9.60;99.90
58568;DHT22;44354;46.192;-1.076;2023-04-03T13:14:52;9.60;99.90
58568;DHT22;44354;46.192;-1.076;2023-04-03T13:17:19;9.70;99.90
58568;DHT22;44354;46.192;-1.076;2023-04-03T13:19:45;9.70;99.90
58568;DHT22;44354;46.192;-1.076;2023-04-03T13:24:54;9.70;99.90
58568;DHT22;44354;46.192;-1.076;2023-04-03T13:27:20;9.70;99.90
58568;DHT22;44354;46.192;-1.076;2023-04-03T13:29:50;9.70;99.90
58568;DHT22;44354;46.192;-1.076;2023-04-03T13:32:18;9.60;99.90
58568;DHT22;44354;46.192;-1.076;2023-04-03T13:34:44;9.70;99.90
58568;DHT22;44354;46.192;-1.076;2023-04-03T13:42:32;9.80;99.90
58568;DHT22;44354;46.192;-1.076;2023-04-03T13:47:42;9.80;99.90
58568;DHT22;44354;46.192;-1.076;2023-04-03T13:55:35;9.90;99.90
58568;DHT22;44354;46.192;-1.076;2023-04-03T14:00:37;9.90;99.90
58568;DHT22;44354;46.192;-1.076;2023-04-03T14:03:13;9.90;99.90
58568;DHT22;44354;46.192;-1.076;2023-04-03T14:05:39;10.00;99.90
58568;DHT22;44354;46.192;-1.076;2023-04-03T14:08:05;9.90;99.90
58568;DHT22;44354;46.192;-1.076;2023-04-03T14:10:32;10.00;99.90
58568;DHT22;44354;46.192;-1.076;2023-04-03T14:12:58;10.00;99.90
58568;DHT22;44354;46.192;-1.076;2023-04-03T14:15:24;10.10;99.90
58568;DHT22;44354;46.192;-1.076;2023-04-03T14:17:51;10.10;99.90
58568;DHT22;44354;46.192;-1.076;2023-04-03T14:20:18;10.10;99.90
58568;DHT22;44354;46.192;-1.076;2023-04-03T14:22:45;10.00;99.90
58568;DHT22;44354;46.192;-1.076;2023-04-03T14:25:10;10.00;99.90
58568;DHT22;44354;46.192;-1.076;2023-04-03T14:27:38;10.00;99.90
58568;DHT22;44354;46.192;-1.076;2023-04-03T14:30:05;10.00;99.90
58568;DHT22;44354;46.192;-1.076;2023-04-03T14:32:31;9.80;99.90
58568;DHT22;44354;46.192;-1.076;2023-04-03T14:34:57;9.90;99.90
58568;DHT22;44354;46.192;-1.076;2023-04-03T14:37:24;9.80;99.90
58568;DHT22;44354;46.192;-1.076;2023-04-03T14:39:51;9.90;99.90
58568;DHT22;44354;46.192;-1.076;2023-04-03T14:42:20;10.00;99.90
58568;DHT22;44354;46.192;-1.076;2023-04-03T14:44:46;10.00;99.90
58568;DHT22;44354;46.192;-1.076;2023-04-03T14:47:12;10.10;99.90
58568;DHT22;44354;46.192;-1.076;2023-04-03T14:49:39;10.10;99.90
58568;DHT22;44354;46.192;-1.076;2023-04-03T14:52:05;10.10;99.90
58568;DHT22;44354;46.192;-1.076;2023-04-03T14:54:31;10.10;99.90
58568;DHT22;44354;46.192;-1.076;2023-04-03T14:56:57;10.00;99.90
58568;DHT22;44354;46.192;-1.076;2023-04-03T14:59:30;10.00;99.90
58568;DHT22;44354;46.192;-1.076;2023-04-03T15:01:57;10.10;99.90
58568;DHT22;44354;46.192;-1.076;2023-04-03T15:04:22;10.10;99.90
58568;DHT22;44354;46.192;-1.076;2023-04-03T15:06:48;10.10;99.90
58568;DHT22;44354;46.192;-1.076;2023-04-03T15:09:21;10.00;99.90
58568;DHT22;44354;46.192;-1.076;2023-04-03T15:11:48;10.00;99.90
58568;DHT22;44354;46.192;-1.076;2023-04-03T15:14:14;9.90;99.90
58568;DHT22;44354;46.192;-1.076;2023-04-03T15:16:40;9.90;99.90
58568;DHT22;44354;46.192;-1.076;2023-04-03T15:19:06;10.00;99.90
58568;DHT22;44354;46.192;-1.076;2023-04-03T15:21:31;10.00;99.90
58568;DHT22;44354;46.192;-1.076;2023-04-03T15:23:57;10.00;99.90
58568;DHT22;44354;46.192;-1.076;2023-04-03T15:26:22;10.10;99.90
58568;DHT22;44354;46.192;-1.076;2023-04-03T15:28:48;10.10;99.90
58568;DHT22;44354;46.192;-1.076;2023-04-03T15:31:14;10.10;99.90
58568;DHT22;44354;46.192;-1.076;2023-04-03T15:33:39;10.20;99.90
58568;DHT22;44354;46.192;-1.076;2023-04-03T15:36:05;10.20;99.90
58568;DHT22;44354;46.192;-1.076;2023-04-03T15:38:30;10.20;99.90
58568;DHT22;44354;46.192;-1.076;2023-04-03T15:40:56;10.10;99.90
58568;DHT22;44354;46.192;-1.076;2023-04-03T15:43:22;10.00;99.90
58568;DHT22;44354;46.192;-1.076;2023-04-03T15:45:47;10.10;99.90
58568;DHT22;44354;46.192;-1.076;2023-04-03T15:48:13;10.00;99.90
58568;DHT22;44354;46.192;-1.076;2023-04-03T15:50:39;10.00;99.90
58568;DHT22;44354;46.192;-1.076;2023-04-03T15:53:05;9.90;99.90
58568;DHT22;44354;46.192;-1.076;2023-04-03T15:55:32;9.90;99.90
58568;DHT22;44354;46.192;-1.076;2023-04-03T15:57:58;10.00;99.90
58568;DHT22;44354;46.192;-1.076;2023-04-03T16:00:24;9.90;99.90
58568;DHT22;44354;46.192;-1.076;2023-04-03T16:02:50;9.80;99.90
58568;DHT22;44354;46.192;-1.076;2023-04-03T16:05:17;9.90;99.90
58568;DHT22;44354;46.192;-1.076;2023-04-03T16:07:43;9.90;99.90
58568;DHT22;44354;46.192;-1.076;2023-04-03T16:10:09;9.90;99.90
58568;DHT22;44354;46.192;-1.076;2023-04-03T16:12:35;9.90;99.90
58568;DHT22;44354;46.192;-1.076;2023-04-03T16:15:01;9.80;99.90
58568;DHT22;44354;46.192;-1.076;2023-04-03T16:17:26;9.70;99.90
58568;DHT22;44354;46.192;-1.076;2023-04-03T16:19:52;9.70;99.90
58568;DHT22;44354;46.192;-1.076;2023-04-03T16:22:18;9.70;99.90
58568;DHT22;44354;46.192;-1.076;2023-04-03T16:24:44;9.80;99.90
58568;DHT22;44354;46.192;-1.076;2023-04-03T16:27:10;9.90;99.90
58568;DHT22;44354;46.192;-1.076;2023-04-03T16:29:35;9.80;99.90
58568;DHT22;44354;46.192;-1.076;2023-04-03T16:32:01;9.70;99.90
58568;DHT22;44354;46.192;-1.076;2023-04-03T16:34:27;9.70;99.90
58568;DHT22;44354;46.192;-1.076;2023-04-03T16:36:55;9.70;99.90
58568;DHT22;44354;46.192;-1.076;2023-04-03T16:39:21;9.70;99.90
58568;DHT22;44354;46.192;-1.076;2023-04-03T16:41:46;9.70;99.90
58568;DHT22;44354;46.192;-1.076;2023-04-03T16:44:12;9.80;99.90
58568;DHT22;44354;46.192;-1.076;2023-04-03T16:46:37;9.80;99.90
58568;DHT22;44354;46.192;-1.076;2023-04-03T16:49:03;9.60;99.90
58568;DHT22;44354;46.192;-1.076;2023-04-03T16:51:29;9.60;99.90
58568;DHT22;44354;46.192;-1.076;2023-04-03T16:53:55;9.60;99.90
58568;DHT22;44354;46.192;-1.076;2023-04-03T16:56:21;9.50;99.90
58568;DHT22;44354;46.192;-1.076;2023-04-03T16:58:47;9.40;99.90
58568;DHT22;44354;46.192;-1.076;2023-04-03T17:01:13;9.30;99.90
58568;DHT22;44354;46.192;-1.076;2023-04-03T17:03:39;9.30;99.90
58568;DHT22;44354;46.192;-1.076;2023-04-03T17:06:05;9.40;99.90
58568;DHT22;44354;46.192;-1.076;2023-04-03T17:08:31;9.40;99.90
58568;DHT22;44354;46.192;-1.076;2023-04-03T17:10:56;9.40;99.90
58568;DHT22;44354;46.192;-1.076;2023-04-03T17:13:22;9.40;99.90